Terminal Aerodrome Forecast
Issued by NWS

Home | Current Version | Previous Version | Text Only | Print | Product List | Glossary Off
Versions: 1 2 3 4 5 6 7 8 9 10 11 12 13 14 15

325
FTUS43 KIWX 230531
TAFSBN
TAF
KSBN 230531Z 2306/2406 00000KT P6SM FEW040
     FM230900 00000KT 4SM BR SCT010
     FM231200 24006KT P6SM VCTS BKN040CB
     FM231600 30008KT P6SM BKN050=

USA.gov is the U.S. government's official web portal to all federal, state and local government web resources and services.